sensor_id;sensor_type;location;lat;lon;timestamp;pressure;altitude;pressure_sealevel;temperature;humidity
62418;BME280;48456;54.242;10.280;2023-12-22T00:00:56;98302.16;;;4.57;100.00
62418;BME280;48456;54.242;10.280;2023-12-22T00:03:22;98295.50;;;4.40;100.00
62418;BME280;48456;54.242;10.280;2023-12-22T00:05:49;98287.66;;;4.38;100.00
62418;BME280;48456;54.242;10.280;2023-12-22T00:08:15;98292.00;;;4.39;100.00
62418;BME280;48456;54.242;10.280;2023-12-22T00:10:42;98321.78;;;4.32;100.00
62418;BME280;48456;54.242;10.280;2023-12-22T00:13:08;98301.03;;;4.23;100.00
62418;BME280;48456;54.242;10.280;2023-12-22T00:15:34;98308.97;;;4.20;100.00
62418;BME280;48456;54.242;10.280;2023-12-22T00:18:01;98315.09;;;4.17;100.00
62418;BME280;48456;54.242;10.280;2023-12-22T00:20:27;98308.16;;;4.14;100.00
62418;BME280;48456;54.242;10.280;2023-12-22T00:22:54;98297.84;;;4.07;100.00
62418;BME280;48456;54.242;10.280;2023-12-22T00:25:20;98301.38;;;4.04;100.00
62418;BME280;48456;54.242;10.280;2023-12-22T00:27:47;98311.00;;;4.00;100.00
62418;BME280;48456;54.242;10.280;2023-12-22T00:30:13;98312.94;;;3.92;100.00
62418;BME280;48456;54.242;10.280;2023-12-22T00:32:40;98321.59;;;3.96;100.00
62418;BME280;48456;54.242;10.280;2023-12-22T00:35:06;98323.31;;;3.95;100.00
62418;BME280;48456;54.242;10.280;2023-12-22T00:37:33;98325.16;;;3.90;100.00
62418;BME280;48456;54.242;10.280;2023-12-22T00:39:59;98317.16;;;3.98;100.00
62418;BME280;48456;54.242;10.280;2023-12-22T00:42:27;98337.44;;;3.86;100.00
62418;BME280;48456;54.242;10.280;2023-12-22T00:44:53;98339.28;;;3.80;100.00
62418;BME280;48456;54.242;10.280;2023-12-22T00:47:19;98339.34;;;3.76;100.00
62418;BME280;48456;54.242;10.280;2023-12-22T00:49:46;98341.09;;;3.74;100.00
62418;BME280;48456;54.242;10.280;2023-12-22T00:52:12;98332.47;;;3.69;100.00
62418;BME280;48456;54.242;10.280;2023-12-22T00:54:39;98330.72;;;3.71;100.00
62418;BME280;48456;54.242;10.280;2023-12-22T00:57:05;98332.50;;;3.66;100.00
62418;BME280;48456;54.242;10.280;2023-12-22T00:59:32;98347.25;;;3.70;100.00
62418;BME280;48456;54.242;10.280;2023-12-22T01:01:58;98336.84;;;3.69;100.00
62418;BME280;48456;54.242;10.280;2023-12-22T01:04:25;98349.81;;;3.75;100.00
62418;BME280;48456;54.242;10.280;2023-12-22T01:06:51;98362.94;;;3.70;100.00
62418;BME280;48456;54.242;10.280;2023-12-22T01:09:19;98359.38;;;3.76;100.00
62418;BME280;48456;54.242;10.280;2023-12-22T01:11:46;98347.22;;;3.73;100.00
62418;BME280;48456;54.242;10.280;2023-12-22T01:14:12;98346.25;;;3.81;100.00
62418;BME280;48456;54.242;10.280;2023-12-22T01:16:42;98338.31;;;3.85;100.00
62418;BME280;48456;54.242;10.280;2023-12-22T01:19:08;98347.91;;;3.85;100.00
62418;BME280;48456;54.242;10.280;2023-12-22T01:21:35;98357.66;;;3.75;100.00
62418;BME280;48456;54.242;10.280;2023-12-22T01:24:01;98350.72;;;3.74;100.00
62418;BME280;48456;54.242;10.280;2023-12-22T01:26:27;98351.66;;;3.70;100.00
62418;BME280;48456;54.242;10.280;2023-12-22T01:28:54;98353.34;;;3.72;100.00
62418;BME280;48456;54.242;10.280;2023-12-22T01:31:20;98355.03;;;3.75;100.00
62418;BME280;48456;54.242;10.280;2023-12-22T01:33:47;98369.88;;;3.74;100.00
62418;BME280;48456;54.242;10.280;2023-12-22T01:36:13;98376.00;;;3.73;100.00
62418;BME280;48456;54.242;10.280;2023-12-22T01:38:40;98382.16;;;3.69;100.00
62418;BME280;48456;54.242;10.280;2023-12-22T01:41:06;98376.13;;;3.64;100.00
62418;BME280;48456;54.242;10.280;2023-12-22T01:43:34;98364.00;;;3.60;100.00
62418;BME280;48456;54.242;10.280;2023-12-22T01:46:01;98363.13;;;3.59;100.00
62418;BME280;48456;54.242;10.280;2023-12-22T01:48:28;98350.88;;;3.64;100.00
62418;BME280;48456;54.242;10.280;2023-12-22T01:50:55;98357.91;;;3.59;100.00
62418;BME280;48456;54.242;10.280;2023-12-22T01:53:22;98355.38;;;3.55;100.00
62418;BME280;48456;54.242;10.280;2023-12-22T01:55:50;98338.94;;;3.46;100.00
62418;BME280;48456;54.242;10.280;2023-12-22T01:58:18;98346.78;;;3.45;100.00
62418;BME280;48456;54.242;10.280;2023-12-22T02:00:45;98349.22;;;3.57;100.00
62418;BME280;48456;54.242;10.280;2023-12-22T02:03:12;98348.31;;;3.60;100.00
62418;BME280;48456;54.242;10.280;2023-12-22T02:05:40;98348.34;;;3.57;100.00
62418;BME280;48456;54.242;10.280;2023-12-22T02:08:07;98351.81;;;3.60;100.00
62418;BME280;48456;54.242;10.280;2023-12-22T02:10:33;98355.19;;;3.67;100.00
62418;BME280;48456;54.242;10.280;2023-12-22T02:12:59;98339.38;;;3.73;100.00
62418;BME280;48456;54.242;10.280;2023-12-22T02:15:26;98337.59;;;3.77;100.00
62418;BME280;48456;54.242;10.280;2023-12-22T02:17:58;98330.63;;;3.76;100.00
62418;BME280;48456;54.242;10.280;2023-12-22T02:20:29;98350.53;;;3.85;100.00
62418;BME280;48456;54.242;10.280;2023-12-22T02:22:56;98329.44;;;3.94;100.00
62418;BME280;48456;54.242;10.280;2023-12-22T02:25:23;98349.44;;;3.98;100.00
62418;BME280;48456;54.242;10.280;2023-12-22T02:27:50;98358.38;;;3.85;100.00
62418;BME280;48456;54.242;10.280;2023-12-22T02:30:23;98345.50;;;3.72;100.00
62418;BME280;48456;54.242;10.280;2023-12-22T02:32:51;98370.16;;;3.56;100.00
62418;BME280;48456;54.242;10.280;2023-12-22T02:35:20;98400.88;;;3.41;100.00
62418;BME280;48456;54.242;10.280;2023-12-22T02:37:47;98365.69;;;3.01;100.00
62418;BME280;48456;54.242;10.280;2023-12-22T02:40:15;98367.72;;;2.74;100.00
62418;BME280;48456;54.242;10.280;2023-12-22T02:42:42;98377.63;;;2.47;100.00
62418;BME280;48456;54.242;10.280;2023-12-22T02:45:15;98376.03;;;2.29;100.00
62418;BME280;48456;54.242;10.280;2023-12-22T02:47:42;98370.94;;;2.18;100.00
62418;BME280;48456;54.242;10.280;2023-12-22T02:50:09;98362.41;;;2.02;100.00
62418;BME280;48456;54.242;10.280;2023-12-22T02:52:35;98342.53;;;1.88;100.00
62418;BME280;48456;54.242;10.280;2023-12-22T02:55:02;98340.88;;;1.76;100.00
62418;BME280;48456;54.242;10.280;2023-12-22T02:57:29;98335.69;;;1.73;100.00
62418;BME280;48456;54.242;10.280;2023-12-22T02:59:56;98349.56;;;1.74;100.00
62418;BME280;48456;54.242;10.280;2023-12-22T03:02:22;98358.25;;;1.77;100.00
62418;BME280;48456;54.242;10.280;2023-12-22T03:04:49;98372.06;;;1.87;100.00
62418;BME280;48456;54.242;10.280;2023-12-22T03:07:15;98358.16;;;1.88;100.00
62418;BME280;48456;54.242;10.280;2023-12-22T03:09:43;98370.34;;;1.83;100.00
62418;BME280;48456;54.242;10.280;2023-12-22T03:12:09;98394.78;;;1.73;100.00
62418;BME280;48456;54.242;10.280;2023-12-22T03:14:36;98376.59;;;1.65;100.00
62418;BME280;48456;54.242;10.280;2023-12-22T03:17:03;98367.09;;;1.54;100.00
62418;BME280;48456;54.242;10.280;2023-12-22T03:19:30;98377.59;;;1.45;100.00
62418;BME280;48456;54.242;10.280;2023-12-22T03:21:57;98357.66;;;1.36;100.00
62418;BME280;48456;54.242;10.280;2023-12-22T03:24:24;98354.28;;;1.23;100.00
62418;BME280;48456;54.242;10.280;2023-12-22T03:26:54;98354.28;;;1.22;100.00
62418;BME280;48456;54.242;10.280;2023-12-22T03:29:21;98352.50;;;1.27;100.00
62418;BME280;48456;54.242;10.280;2023-12-22T03:31:47;98342.91;;;1.37;100.00
62418;BME280;48456;54.242;10.280;2023-12-22T03:34:13;98339.41;;;1.42;100.00
62418;BME280;48456;54.242;10.280;2023-12-22T03:36:40;98350.72;;;1.40;100.00
62418;BME280;48456;54.242;10.280;2023-12-22T03:39:06;98348.09;;;1.43;100.00
62418;BME280;48456;54.242;10.280;2023-12-22T03:41:33;98346.31;;;1.50;100.00
62418;BME280;48456;54.242;10.280;2023-12-22T03:44:00;98326.28;;;1.52;100.00
62418;BME280;48456;54.242;10.280;2023-12-22T03:46:26;98347.13;;;1.55;100.00
62418;BME280;48456;54.242;10.280;2023-12-22T03:48:53;98337.59;;;1.51;100.00
62418;BME280;48456;54.242;10.280;2023-12-22T03:51:19;98322.88;;;1.42;100.00
62418;BME280;48456;54.242;10.280;2023-12-22T03:53:46;98302.09;;;1.39;100.00
62418;BME280;48456;54.242;10.280;2023-12-22T03:56:12;98314.25;;;1.35;100.00
62418;BME280;48456;54.242;10.280;2023-12-22T03:58:38;98316.03;;;1.33;100.00
62418;BME280;48456;54.242;10.280;2023-12-22T04:01:05;98317.75;;;1.34;100.00
62418;BME280;48456;54.242;10.280;2023-12-22T04:03:34;98345.50;;;1.37;100.00
62418;BME280;48456;54.242;10.280;2023-12-22T04:06:03;98342.88;;;1.40;100.00
62418;BME280;48456;54.242;10.280;2023-12-22T04:08:30;98362.84;;;1.41;100.00
62418;BME280;48456;54.242;10.280;2023-12-22T04:10:56;98372.34;;;1.51;100.00
62418;BME280;48456;54.242;10.280;2023-12-22T04:13:23;98368.78;;;1.63;100.00
62418;BME280;48456;54.242;10.280;2023-12-22T04:15:49;98365.25;;;1.71;100.00
62418;BME280;48456;54.242;10.280;2023-12-22T04:18:16;98373.03;;;1.72;100.00
62418;BME280;48456;54.242;10.280;2023-12-22T04:20:42;98371.31;;;1.73;100.00
62418;BME280;48456;54.242;10.280;2023-12-22T04:23:09;98386.06;;;1.72;100.00
62418;BME280;48456;54.242;10.280;2023-12-22T04:25:35;98359.16;;;1.72;100.00
62418;BME280;48456;54.242;10.280;2023-12-22T04:28:02;98360.00;;;1.77;100.00
62418;BME280;48456;54.242;10.280;2023-12-22T04:30:28;98375.63;;;1.75;100.00
62418;BME280;48456;54.242;10.280;2023-12-22T04:32:59;98375.72;;;1.67;100.00
62418;BME280;48456;54.242;10.280;2023-12-22T04:35:26;98387.88;;;1.65;100.00
62418;BME280;48456;54.242;10.280;2023-12-22T04:37:52;98375.72;;;1.63;100.00
62418;BME280;48456;54.242;10.280;2023-12-22T04:40:19;98378.31;;;1.67;100.00
62418;BME280;48456;54.242;10.280;2023-12-22T04:42:45;98373.94;;;1.71;100.00
62418;BME280;48456;54.242;10.280;2023-12-22T04:45:12;98380.84;;;1.78;100.00
62418;BME280;48456;54.242;10.280;2023-12-22T04:47:39;98364.31;;;1.79;100.00
62418;BME280;48456;54.242;10.280;2023-12-22T04:50:06;98358.22;;;1.80;100.00
62418;BME280;48456;54.242;10.280;2023-12-22T04:52:33;98360.06;;;1.71;100.00
62418;BME280;48456;54.242;10.280;2023-12-22T04:54:59;98358.38;;;1.62;100.00
62418;BME280;48456;54.242;10.280;2023-12-22T04:57:25;98352.34;;;1.57;100.00
62418;BME280;48456;54.242;10.280;2023-12-22T04:59:52;98350.63;;;1.54;100.00
62418;BME280;48456;54.242;10.280;2023-12-22T05:02:19;98352.28;;;1.60;100.00
62418;BME280;48456;54.242;10.280;2023-12-22T05:04:45;98349.69;;;1.60;100.00
62418;BME280;48456;54.242;10.280;2023-12-22T05:07:11;98363.59;;;1.60;100.00
62418;BME280;48456;54.242;10.280;2023-12-22T05:09:43;98345.34;;;1.60;100.00
62418;BME280;48456;54.242;10.280;2023-12-22T05:12:09;98362.69;;;1.61;100.00
62418;BME280;48456;54.242;10.280;2023-12-22T05:14:36;98374.84;;;1.64;100.00
62418;BME280;48456;54.242;10.280;2023-12-22T05:17:02;98360.97;;;1.63;100.00
62418;BME280;48456;54.242;10.280;2023-12-22T05:19:28;98369.63;;;1.65;100.00
62418;BME280;48456;54.242;10.280;2023-12-22T05:21:55;98387.00;;;1.66;100.00
62418;BME280;48456;54.242;10.280;2023-12-22T05:24:26;98378.31;;;1.67;100.00
62418;BME280;48456;54.242;10.280;2023-12-22T05:26:52;98385.25;;;1.67;100.00
62418;BME280;48456;54.242;10.280;2023-12-22T05:29:19;98385.25;;;1.65;100.00
62418;BME280;48456;54.242;10.280;2023-12-22T05:31:45;98399.16;;;1.67;100.00
62418;BME280;48456;54.242;10.280;2023-12-22T05:34:12;98385.16;;;1.79;100.00
62418;BME280;48456;54.242;10.280;2023-12-22T05:36:38;98389.47;;;1.84;100.00
62418;BME280;48456;54.242;10.280;2023-12-22T05:39:05;98403.41;;;1.83;100.00
62418;BME280;48456;54.242;10.280;2023-12-22T05:41:34;98423.38;;;1.84;100.00
62418;BME280;48456;54.242;10.280;2023-12-22T05:44:02;98426.78;;;1.90;100.00
62418;BME280;48456;54.242;10.280;2023-12-22T05:46:29;98428.50;;;1.98;100.00
62418;BME280;48456;54.242;10.280;2023-12-22T05:48:55;98434.50;;;2.09;100.00
62418;BME280;48456;54.242;10.280;2023-12-22T05:51:25;98440.56;;;2.10;100.00
62418;BME280;48456;54.242;10.280;2023-12-22T05:53:52;98452.66;;;2.22;100.00
62418;BME280;48456;54.242;10.280;2023-12-22T05:56:20;98440.44;;;2.28;100.00
62418;BME280;48456;54.242;10.280;2023-12-22T05:58:47;98463.84;;;2.31;100.00
62418;BME280;48456;54.242;10.280;2023-12-22T06:01:15;98460.38;;;2.32;100.00
62418;BME280;48456;54.242;10.280;2023-12-22T06:03:42;98463.00;;;2.31;100.00
62418;BME280;48456;54.242;10.280;2023-12-22T06:06:08;98470.78;;;2.34;100.00
62418;BME280;48456;54.242;10.280;2023-12-22T06:08:34;98481.16;;;2.43;100.00
62418;BME280;48456;54.242;10.280;2023-12-22T06:11:01;98466.22;;;2.59;100.00
62418;BME280;48456;54.242;10.280;2023-12-22T06:13:27;98477.59;;;2.54;100.00
62418;BME280;48456;54.242;10.280;2023-12-22T06:15:54;98477.56;;;2.55;100.00
62418;BME280;48456;54.242;10.280;2023-12-22T06:18:20;98489.72;;;2.61;100.00
62418;BME280;48456;54.242;10.280;2023-12-22T06:20:46;98500.13;;;2.64;100.00
62418;BME280;48456;54.242;10.280;2023-12-22T06:23:13;98509.63;;;2.68;100.00
62418;BME280;48456;54.242;10.280;2023-12-22T06:25:40;98502.66;;;2.72;100.00
62418;BME280;48456;54.242;10.280;2023-12-22T06:28:06;98510.41;;;2.78;100.00
62418;BME280;48456;54.242;10.280;2023-12-22T06:30:33;98515.72;;;2.72;100.00
62418;BME280;48456;54.242;10.280;2023-12-22T06:32:59;98518.31;;;2.75;100.00
62418;BME280;48456;54.242;10.280;2023-12-22T06:35:26;98531.41;;;2.69;100.00
62418;BME280;48456;54.242;10.280;2023-12-22T06:37:52;98501.84;;;2.67;100.00
62418;BME280;48456;54.242;10.280;2023-12-22T06:40:20;98530.53;;;2.68;100.00
62418;BME280;48456;54.242;10.280;2023-12-22T06:42:47;98534.00;;;2.70;100.00
62418;BME280;48456;54.242;10.280;2023-12-22T06:45:13;98555.75;;;2.71;100.00
62418;BME280;48456;54.242;10.280;2023-12-22T06:47:40;98531.41;;;2.66;100.00
62418;BME280;48456;54.242;10.280;2023-12-22T06:50:06;98544.47;;;2.67;100.00
62418;BME280;48456;54.242;10.280;2023-12-22T06:52:33;98578.34;;;2.75;100.00
62418;BME280;48456;54.242;10.280;2023-12-22T06:55:00;98576.56;;;2.82;100.00
62418;BME280;48456;54.242;10.280;2023-12-22T06:57:26;98576.50;;;2.85;100.00
62418;BME280;48456;54.242;10.280;2023-12-22T06:59:54;98587.81;;;2.85;100.00
62418;BME280;48456;54.242;10.280;2023-12-22T07:02:20;98580.06;;;2.78;100.00
62418;BME280;48456;54.242;10.280;2023-12-22T07:04:59;98598.44;;;2.65;100.00
62418;BME280;48456;54.242;10.280;2023-12-22T07:07:34;98603.69;;;2.60;100.00
62418;BME280;48456;54.242;10.280;2023-12-22T07:10:02;98608.09;;;2.52;100.00
62418;BME280;48456;54.242;10.280;2023-12-22T07:12:28;98609.81;;;2.53;100.00
62418;BME280;48456;54.242;10.280;2023-12-22T07:14:56;98612.47;;;2.52;100.00
62418;BME280;48456;54.242;10.280;2023-12-22T07:17:24;98618.59;;;2.43;100.00
62418;BME280;48456;54.242;10.280;2023-12-22T07:19:50;98625.59;;;2.38;100.00
62418;BME280;48456;54.242;10.280;2023-12-22T07:22:18;98633.44;;;2.36;100.00
62418;BME280;48456;54.242;10.280;2023-12-22T07:24:45;98639.53;;;2.35;100.00
62418;BME280;48456;54.242;10.280;2023-12-22T07:27:12;98634.31;;;2.33;100.00
62418;BME280;48456;54.242;10.280;2023-12-22T07:29:39;98643.00;;;2.34;100.00
62418;BME280;48456;54.242;10.280;2023-12-22T07:32:05;98656.03;;;2.34;100.00
62418;BME280;48456;54.242;10.280;2023-12-22T07:34:34;98647.31;;;2.40;100.00
62418;BME280;48456;54.242;10.280;2023-12-22T07:37:04;98664.69;;;2.44;100.00
62418;BME280;48456;54.242;10.280;2023-12-22T07:39:35;98677.72;;;2.52;100.00
62418;BME280;48456;54.242;10.280;2023-12-22T07:42:03;98677.66;;;2.56;100.00
62418;BME280;48456;54.242;10.280;2023-12-22T07:44:30;98690.84;;;2.36;100.00
62418;BME280;48456;54.242;10.280;2023-12-22T07:46:58;98695.25;;;2.20;100.00
62418;BME280;48456;54.242;10.280;2023-12-22T07:49:29;98697.97;;;1.95;100.00
62418;BME280;48456;54.242;10.280;2023-12-22T07:51:57;98705.81;;;1.81;100.00
62418;BME280;48456;54.242;10.280;2023-12-22T07:54:23;98694.56;;;1.65;100.00
62418;BME280;48456;54.242;10.280;2023-12-22T07:56:50;98701.53;;;1.50;100.00
62418;BME280;48456;54.242;10.280;2023-12-22T07:59:16;98704.16;;;1.33;100.00
62418;BME280;48456;54.242;10.280;2023-12-22T08:01:56;98705.03;;;1.26;100.00
62418;BME280;48456;54.242;10.280;2023-12-22T08:04:22;98697.19;;;1.21;100.00
62418;BME280;48456;54.242;10.280;2023-12-22T08:06:49;98710.22;;;1.21;100.00
62418;BME280;48456;54.242;10.280;2023-12-22T08:09:15;98703.28;;;1.20;100.00
62418;BME280;48456;54.242;10.280;2023-12-22T08:11:42;98698.09;;;1.26;100.00
62418;BME280;48456;54.242;10.280;2023-12-22T08:14:08;98711.97;;;1.33;100.00
62418;BME280;48456;54.242;10.280;2023-12-22T08:16:35;98718.91;;;1.43;100.00
62418;BME280;48456;54.242;10.280;2023-12-22T08:19:01;98705.88;;;1.58;100.00
62418;BME280;48456;54.242;10.280;2023-12-22T08:21:28;98725.84;;;1.62;100.00
62418;BME280;48456;54.242;10.280;2023-12-22T08:24:09;98731.06;;;1.66;100.00
62418;BME280;48456;54.242;10.280;2023-12-22T08:26:46;98720.59;;;1.71;100.00
62418;BME280;48456;54.242;10.280;2023-12-22T08:29:13;98726.69;;;1.70;100.00
62418;BME280;48456;54.242;10.280;2023-12-22T08:31:39;98722.34;;;1.75;100.00
62418;BME280;48456;54.242;10.280;2023-12-22T08:34:06;98727.56;;;1.78;100.00
62418;BME280;48456;54.242;10.280;2023-12-22T08:36:32;98729.28;;;1.84;100.00
62418;BME280;48456;54.242;10.280;2023-12-22T08:38:59;98736.19;;;1.91;100.00
62418;BME280;48456;54.242;10.280;2023-12-22T08:41:26;98741.38;;;2.04;100.00
62418;BME280;48456;54.242;10.280;2023-12-22T08:43:53;98757.03;;;2.12;100.00
62418;BME280;48456;54.242;10.280;2023-12-22T08:46:19;98758.75;;;2.16;100.00
62418;BME280;48456;54.242;10.280;2023-12-22T08:48:46;98769.19;;;2.17;100.00
62418;BME280;48456;54.242;10.280;2023-12-22T08:51:12;98767.44;;;2.18;100.00
62418;BME280;48456;54.242;10.280;2023-12-22T08:53:39;98779.59;;;2.22;100.00
62418;BME280;48456;54.242;10.280;2023-12-22T08:56:06;98776.09;;;2.25;100.00
62418;BME280;48456;54.242;10.280;2023-12-22T08:58:33;98777.84;;;2.27;100.00
62418;BME280;48456;54.242;10.280;2023-12-22T09:01:00;98776.94;;;2.39;100.00
62418;BME280;48456;54.242;10.280;2023-12-22T09:03:27;98789.97;;;2.42;100.00
62418;BME280;48456;54.242;10.280;2023-12-22T09:05:54;98783.84;;;2.53;100.00
62418;BME280;48456;54.242;10.280;2023-12-22T09:08:21;98777.75;;;2.57;100.00
62418;BME280;48456;54.242;10.280;2023-12-22T09:10:47;98776.84;;;2.58;100.00
62418;BME280;48456;54.242;10.280;2023-12-22T09:13:14;98781.19;;;2.64;100.00
62418;BME280;48456;54.242;10.280;2023-12-22T09:15:40;98791.59;;;2.68;100.00
62418;BME280;48456;54.242;10.280;2023-12-22T09:18:07;98815.97;;;2.70;100.00
62418;BME280;48456;54.242;10.280;2023-12-22T09:20:34;98811.59;;;2.77;100.00
62418;BME280;48456;54.242;10.280;2023-12-22T09:23:00;98817.69;;;2.78;100.00
62418;BME280;48456;54.242;10.280;2023-12-22T09:25:27;98819.41;;;2.79;100.00
62418;BME280;48456;54.242;10.280;2023-12-22T09:27:53;98822.91;;;2.78;100.00
62418;BME280;48456;54.242;10.280;2023-12-22T09:30:20;98828.97;;;2.84;100.00
62418;BME280;48456;54.242;10.280;2023-12-22T09:32:47;98804.56;;;2.89;100.00
62418;BME280;48456;54.242;10.280;2023-12-22T09:35:14;98828.94;;;2.89;100.00
62418;BME280;48456;54.242;10.280;2023-12-22T09:37:40;98823.69;;;2.92;100.00
62418;BME280;48456;54.242;10.280;2023-12-22T09:40:07;98839.38;;;2.91;100.00
62418;BME280;48456;54.242;10.280;2023-12-22T09:42:37;98848.94;;;2.95;100.00
62418;BME280;48456;54.242;10.280;2023-12-22T09:45:06;98837.56;;;3.07;100.00
62418;BME280;48456;54.242;10.280;2023-12-22T09:47:34;98833.19;;;3.12;100.00
62418;BME280;48456;54.242;10.280;2023-12-22T09:50:01;98847.97;;;3.16;100.00
62418;BME280;48456;54.242;10.280;2023-12-22T09:52:28;98850.50;;;3.29;100.00
62418;BME280;48456;54.242;10.280;2023-12-22T09:54:55;98838.28;;;3.31;100.00
62418;BME280;48456;54.242;10.280;2023-12-22T09:57:23;98837.38;;;3.38;100.00
62418;BME280;48456;54.242;10.280;2023-12-22T09:59:54;98847.84;;;3.32;100.00
62418;BME280;48456;54.242;10.280;2023-12-22T10:02:20;98856.63;;;3.26;100.00
62418;BME280;48456;54.242;10.280;2023-12-22T10:04:48;98855.75;;;3.24;100.00
62418;BME280;48456;54.242;10.280;2023-12-22T10:07:14;98843.56;;;3.18;100.00
62418;BME280;48456;54.242;10.280;2023-12-22T10:09:43;98851.41;;;3.17;100.00
62418;BME280;48456;54.242;10.280;2023-12-22T10:12:11;98848.81;;;3.15;100.00
62418;BME280;48456;54.242;10.280;2023-12-22T10:14:39;98843.59;;;3.15;100.00
62418;BME280;48456;54.242;10.280;2023-12-22T10:17:06;98847.09;;;3.16;100.00
62418;BME280;48456;54.242;10.280;2023-12-22T10:19:33;98862.75;;;3.19;100.00
62418;BME280;48456;54.242;10.280;2023-12-22T10:21:59;98854.00;;;3.24;100.00
62418;BME280;48456;54.242;10.280;2023-12-22T10:24:41;98847.00;;;3.31;100.00
62418;BME280;48456;54.242;10.280;2023-12-22T10:27:09;98852.16;;;3.44;100.00
62418;BME280;48456;54.242;10.280;2023-12-22T10:29:35;98848.59;;;3.53;100.00
62418;BME280;48456;54.242;10.280;2023-12-22T10:32:02;98867.75;;;3.55;100.00
62418;BME280;48456;54.242;10.280;2023-12-22T10:34:33;98862.47;;;3.59;100.00
62418;BME280;48456;54.242;10.280;2023-12-22T10:36:59;98868.66;;;3.47;100.00
62418;BME280;48456;54.242;10.280;2023-12-22T10:39:27;98865.25;;;3.36;100.00
62418;BME280;48456;54.242;10.280;2023-12-22T10:41:53;98874.03;;;3.25;100.00
62418;BME280;48456;54.242;10.280;2023-12-22T10:44:20;98867.09;;;3.20;100.00
62418;BME280;48456;54.242;10.280;2023-12-22T10:46:47;98873.22;;;3.12;100.00
62418;BME280;48456;54.242;10.280;2023-12-22T10:49:13;98863.69;;;3.07;100.00
62418;BME280;48456;54.242;10.280;2023-12-22T10:51:40;98861.09;;;2.97;100.00
62418;BME280;48456;54.242;10.280;2023-12-22T10:54:07;98852.41;;;2.97;100.00
62418;BME280;48456;54.242;10.280;2023-12-22T10:56:33;98849.81;;;2.92;100.00
62418;BME280;48456;54.242;10.280;2023-12-22T10:59:00;98865.53;;;2.88;100.00
62418;BME280;48456;54.242;10.280;2023-12-22T11:01:28;98850.69;;;2.91;100.00
62418;BME280;48456;54.242;10.280;2023-12-22T11:03:57;98851.59;;;2.89;100.00
62418;BME280;48456;54.242;10.280;2023-12-22T11:06:23;98848.94;;;2.95;100.00
62418;BME280;48456;54.242;10.280;2023-12-22T11:08:53;98856.75;;;2.98;100.00
62418;BME280;48456;54.242;10.280;2023-12-22T11:11:35;98860.25;;;2.98;100.00
62418;BME280;48456;54.242;10.280;2023-12-22T11:14:02;98859.38;;;2.95;100.00
62418;BME280;48456;54.242;10.280;2023-12-22T11:16:29;98863.72;;;3.01;100.00
62418;BME280;48456;54.242;10.280;2023-12-22T11:18:56;98870.66;;;3.03;100.00
62418;BME280;48456;54.242;10.280;2023-12-22T11:21:24;98854.09;;;3.10;100.00
62418;BME280;48456;54.242;10.280;2023-12-22T11:23:51;98857.53;;;3.14;100.00
62418;BME280;48456;54.242;10.280;2023-12-22T11:26:18;98852.31;;;3.16;100.00
62418;BME280;48456;54.242;10.280;2023-12-22T11:28:46;98858.38;;;3.19;100.00
62418;BME280;48456;54.242;10.280;2023-12-22T11:31:12;98853.13;;;3.21;100.00
62418;BME280;48456;54.242;10.280;2023-12-22T11:33:40;98867.94;;;3.25;100.00
62418;BME280;48456;54.242;10.280;2023-12-22T11:36:24;98860.97;;;3.29;100.00
62418;BME280;48456;54.242;10.280;2023-12-22T11:38:52;98869.63;;;3.32;100.00
62418;BME280;48456;54.242;10.280;2023-12-22T11:41:22;98858.31;;;3.32;100.00
62418;BME280;48456;54.242;10.280;2023-12-22T11:43:50;98858.28;;;3.38;100.00
62418;BME280;48456;54.242;10.280;2023-12-22T11:46:17;98859.13;;;3.40;100.00
62418;BME280;48456;54.242;10.280;2023-12-22T11:48:47;98846.94;;;3.36;100.00
62418;BME280;48456;54.242;10.280;2023-12-22T11:51:15;98865.25;;;3.34;100.00
62418;BME280;48456;54.242;10.280;2023-12-22T11:53:42;98862.63;;;3.36;100.00
62418;BME280;48456;54.242;10.280;2023-12-22T11:56:09;98849.56;;;3.37;100.00
62418;BME280;48456;54.242;10.280;2023-12-22T11:58:39;98853.94;;;3.37;100.00
62418;BME280;48456;54.242;10.280;2023-12-22T12:01:12;98857.41;;;3.36;100.00
62418;BME280;48456;54.242;10.280;2023-12-22T12:03:53;98872.19;;;3.42;100.00
62418;BME280;48456;54.242;10.280;2023-12-22T12:06:30;98876.56;;;3.41;100.00
62418;BME280;48456;54.242;10.280;2023-12-22T12:08:57;98883.50;;;3.45;100.00
62418;BME280;48456;54.242;10.280;2023-12-22T12:14:10;98867.78;;;3.51;100.00
62418;BME280;48456;54.242;10.280;2023-12-22T12:16:40;98881.72;;;3.52;100.00
62418;BME280;48456;54.242;10.280;2023-12-22T12:19:07;98876.44;;;3.58;100.00
62418;BME280;48456;54.242;10.280;2023-12-22T12:21:37;98877.28;;;3.62;100.00
62418;BME280;48456;54.242;10.280;2023-12-22T12:24:05;98879.81;;;3.74;100.00
62418;BME280;48456;54.242;10.280;2023-12-22T12:26:35;98882.28;;;3.93;100.00
62418;BME280;48456;54.242;10.280;2023-12-22T12:29:02;98878.59;;;4.14;100.00
62418;BME280;48456;54.242;10.280;2023-12-22T12:31:35;98874.06;;;4.34;100.00
62418;BME280;48456;54.242;10.280;2023-12-22T12:34:05;98887.78;;;4.61;100.00
62418;BME280;48456;54.242;10.280;2023-12-22T12:36:32;98889.34;;;4.77;100.00
62418;BME280;48456;54.242;10.280;2023-12-22T12:39:06;98899.91;;;4.68;100.00
62418;BME280;48456;54.242;10.280;2023-12-22T12:41:35;98894.00;;;4.49;100.00
62418;BME280;48456;54.242;10.280;2023-12-22T12:44:03;98892.25;;;4.49;100.00
62418;BME280;48456;54.242;10.280;2023-12-22T12:46:32;98879.13;;;4.52;100.00
62418;BME280;48456;54.242;10.280;2023-12-22T12:49:05;98881.81;;;4.46;100.00
62418;BME280;48456;54.242;10.280;2023-12-22T12:51:36;98881.97;;;4.29;100.00
62418;BME280;48456;54.242;10.280;2023-12-22T12:54:04;98879.50;;;4.13;100.00